Indian Springs, Nevada Weather observations

Data are for observation ending at time listed.
 Day   Time    Ave.   Ave.  Ave.  Vector   Max.   Stn.    Total    Solar   Ave.  
  of    of     Air    Rel.  Wind   Wind    Wind   Baro.  Precip.   Rad.    Soil  
Year   Day     Temp.  Hum.  Speed  Dir.    Gust   Pres.                    Temp. 
2014   (PST)    F      %     mph   deg.    mph     mb.     in.     W/m2     F   
------------------------------------------------------------------------------
 261   13:50   93.5    14    4.7    97     12.5   900.9    0.00     741    90.8
 261   14:00   93.6    13    3.1   170      8.8   901.0    0.00     718    91.0
 261   14:10   94.6    13    4.7    75     16.1   901.0    0.00     695    91.2
 261   14:20   94.0    13    4.0   109     14.0   900.9    0.00     669    91.4
 261   14:30   94.1    13    4.9    93     13.4   900.8    0.00     502    91.7
 261   14:40   94.0    13    3.9   131     14.4   900.8    0.00      47    91.9
 261   14:50   94.0    13    4.2   145     13.3   900.6    0.00     252    92.1
 261   15:00   94.2    13    3.8   116     13.1   900.6    0.00     499    92.4
 261   15:10   93.8    13    5.2   106     15.0   900.6    0.00     419    92.7
 261   15:20   94.0    13    4.6    90     13.1   900.6    0.00     491    92.8
 261   15:30   94.1    12    4.7    80      9.6   900.4    0.00     464    93.0
 261   15:40   93.9    12    3.7   113      9.2   900.6    0.00     431    93.1
 261   15:50   94.0    12    2.6   107      6.8   900.5    0.00     398    93.1
 261   16:00   94.7    12    2.2   240      5.3   900.5    0.00     363    93.2
 261   16:10   93.8     9    4.1   209      8.1   900.4    0.00     327    93.3
 261   16:20   93.4     9    5.2   223     12.2   900.4    0.00     292    93.3
 261   16:30   93.0     9    6.7   227     14.0   900.3    0.00     256    93.3
 261   16:40   92.7     9    6.1   225     10.9   900.2    0.00     221    93.4
 261   16:50   92.8     9    3.3   218     10.4   900.1    0.00     187    93.4
 261   17:00   91.4     9    6.7   217     13.7   900.0    0.00     115    93.4
 261   17:10   90.6     9    7.1   218     13.4   900.1    0.00      49    93.4
 261   17:20   90.1     9    7.7   220     15.5   899.8    0.00      37    93.3
 261   17:30   89.0     9    8.3   219     15.8   899.8    0.00      23    93.3
 261   17:40   88.7     9    6.4   215     12.3   899.8    0.00      13    93.2
 261   17:50   88.2    10    5.4   210      9.9   899.7    0.00       7    93.1
 261   18:00   87.9    10    5.3   206     11.5   899.7    0.00       2    92.9
 261   18:10   87.3    10    3.4   201      6.1   899.8    0.00       0    92.8
 261   18:20   86.7    11    4.3   201      9.3   899.7    0.00       0    92.6
 261   18:30   86.4    11    4.4   188      8.0   899.7    0.00       0    92.4
 261   18:40   86.0    12    4.6   198      8.0   899.8    0.00       0    92.2
 261   18:50   85.8    13    6.0   194     10.5   899.7    0.00       0    92.0
 261   19:00   85.9    13    5.7   190     11.0   899.8    0.00       0    91.7
 261   19:10   85.4    13    3.2   179      7.5   900.0    0.00       0    91.5
 261   19:20   85.2    13    2.9   180      5.9   900.2    0.00       0    91.3
 261   19:30   84.8    12    1.8   178      6.1   900.3    0.00       0    91.1
 261   19:40   83.9    13    1.0   179      2.6   900.4    0.00       0    90.9
 261   19:50   83.0    14    0.9   248      2.3   900.4    0.00       0    90.7
 261   20:00   80.9    16    1.1    14      3.2   900.3    0.00       0    90.4
 261   20:10   80.2    15    0.9   352      3.1   900.4    0.00       0    90.2
 261   20:20   79.6    15    1.4    88      2.9   900.2    0.00       0    90.0
 261   20:30   77.7    17    0.2   118      1.3   900.3    0.00       0    89.8
 261   20:40   76.8    18    0.7   103      2.0   900.2    0.00       0    89.6
 261   20:50   76.2    18    0.7   302      3.8   900.2    0.00       0    89.3
 261   21:00   76.6    18    1.3   327      3.7   900.1    0.00       0    89.1
 261   21:10   76.3    18    0.7    77      2.0   900.0    0.00       0    88.9
 261   21:20   75.4    19    1.1   262      3.2   900.1    0.00       0    88.7
 261   21:30   76.1    18    1.6   295      2.6   900.1    0.00       0    88.4
 261   21:40   76.0    19    0.3   297      1.0   900.1    0.00       0    88.2
 261   21:50   75.8    19    0.5   234      1.8   900.2    0.00       0    88.0
 261   22:00   74.7    22    0.1   242      1.5   900.0    0.00       0    87.8
 261   22:10   74.5    20    2.8   246      5.7   900.0    0.00       0    87.6
 261   22:20   76.5    21    1.4   277      4.4   900.2    0.00       0    87.4
 261   22:30   76.3    23    0.4   273      2.1   900.3    0.00       0    87.2
 261   22:40   74.4    23    1.3   235      1.8   900.3    0.00       0    87.0
 261   22:50   73.9    23    1.9   229      3.7   900.3    0.00       0    86.8
 261   23:00   72.6    24    1.7   239      4.1   900.3    0.00       0    86.6
 261   23:10   72.8    25    0.9    34      2.5   900.4    0.00       0    86.4
 261   23:20   71.8    26    0.8    51      3.3   900.3    0.00       0    86.2
 261   23:30   72.6    26    0.6   222      1.8   900.4    0.00       0    86.1
 261   23:40   71.7    27    0.2   138      1.2   900.4    0.00       0    85.9
 261   23:50   71.0    28    0.4   242      1.6   900.4    0.00       0    85.7
 262    0:00   72.8    24    1.2   267      2.3   900.5    0.00       0    85.5
 262    0:10   73.3    22    1.4   252      2.3   900.4    0.00       0    85.3
 262    0:20   72.8    23    1.5   241      2.8   900.6    0.00       0    85.1
 262    0:30   72.3    24    2.1   234      3.7   900.6    0.00       0    85.0
 262    0:40   72.3    24    2.4   219      4.3   900.7    0.00       0    84.8
 262    0:50   72.8    24    1.6   254      3.5   900.8    0.00       0    84.6
 262    1:00   72.6    25    1.8   225      2.7   900.8    0.00       0    84.5
 262    1:10   72.1    27    0.5   223      1.4   901.0    0.00       0    84.3
 262    1:20   70.9    28    0.7   133      2.9   900.9    0.00       0    84.2
 262    1:30   71.2    29    0.1   189      0.9   900.8    0.00       0    84.0
 262    1:40   71.7    29    0.6   247      2.1   901.0    0.00       0    83.9
 262    1:50   71.9    29    0.5   220      1.7   900.8    0.00       0    83.7
 262    2:00   71.0    31    0.7   239      1.9   900.9    0.00       0    83.6
 262    2:10   71.8    30    0.8   294      2.2   901.0    0.00       0    83.4
 262    2:20   71.7    30    0.2   241      1.0   901.1    0.00       0    83.2
 262    2:30   69.9    32    0.0   124      0.8   901.1    0.00       0    83.1
 262    2:40   68.3    35    0.5   120      1.6   901.1    0.00       0    83.0
 262    2:50   67.4    36    0.5   170      1.7   901.0    0.00       0    82.8
 262    3:00   67.5    35    1.1   111      2.5   901.0    0.00       0    82.7
 262    3:10   67.2    36    1.1    82      3.1   901.0    0.00       0    82.5
 262    3:20   67.2    36    0.1   247      0.9   901.0    0.00       0    82.4
 262    3:30   67.6    36    1.7   296      3.2   901.0    0.00       0    82.3
 262    3:40   67.4    34    1.5   246      2.6   901.1    0.00       0    82.1
 262    3:50   67.0    35    1.2   246      2.6   901.1    0.00       0    82.0
 262    4:00   67.3    35    0.8   226      1.8   901.1    0.00       0    81.9
 262    4:10   66.2    36    1.6   232      2.3   901.2    0.00       0    81.7
 262    4:20   65.6    37    1.5   244      2.6   901.1    0.00       0    81.6
 262    4:30   65.7    36    1.2   206      2.5   901.2    0.00       0    81.5
 262    4:40   63.9    42    0.8    74      4.7   901.2    0.00       0    81.3
 262    4:50   64.1    42    0.5   212      1.3   901.2    0.00       0    81.2
 262    5:00   64.6    41    1.5   259      4.2   901.3    0.00       0    81.0
 262    5:10   65.8    37    2.4   239      5.8   901.4    0.00       0    80.9
 262    5:20   66.9    36    3.1   234      5.5   901.6    0.00       0    80.8
 262    5:30   68.5    34    3.7   240      7.5   901.7    0.00       0    80.7
 262    5:40   70.2    36    4.2   241      7.4   902.0    0.00       6    80.5
 262    5:50   70.8    38    4.5   237      7.5   902.2    0.00      11    80.4
 262    6:00   71.5    37    4.9   240      8.6   902.4    0.00      22    80.3
 262    6:10   72.1    37    4.1   243      8.0   902.5    0.00      56    80.2
 262    6:20   72.6    36    4.3   245      7.2   902.8    0.00     131    80.0
 262    6:30   73.3    35    4.3   245      8.0   903.2    0.00     167    79.9
 262    6:40   74.2    35    2.9   250      7.1   903.4    0.00     203    79.8
 262    6:50   74.7    34    3.0   256      6.2   903.7    0.00     240    79.7
 262    7:00   75.3    34    3.0   252      6.6   903.9    0.00     278    79.6
 262    7:10   75.5    34    4.4   243      6.9   904.2    0.00     317    79.6
 262    7:20   76.0    34    3.4   247      5.6   904.2    0.00     354    79.6
 262    7:30   76.9    33    2.9   251      7.1   904.5    0.00     391    79.6
 262    7:40   77.2    33    3.5   244      6.9   904.8    0.00     427    79.6
 262    7:50   77.6    32    2.9   250      6.0   904.9    0.00     462    79.7
 262    8:00   78.1    32    2.9   269      5.3   905.2    0.00     496    79.8
 262    8:10   78.7    31    1.9   286      5.2   905.4    0.00     526    79.9
 262    8:20   79.6    31    1.8   307      4.5   905.7    0.00     555    80.1
 262    8:30   80.9    29    1.2     1      4.2   905.9    0.00     586    80.3
 262    8:40   80.6    29    1.8    16      4.8   906.1    0.00     619    80.5
 262    8:50   81.0    29    1.7   341      3.9   906.3    0.00     645    80.8
 262    9:00   81.2    28    2.3    23      4.7   906.4    0.00     677    81.1
 262    9:10   81.9    28    1.5    20      4.5   906.3    0.00     701    81.3
 262    9:20   83.0    26    1.6   318      3.6   906.6    0.00     720    81.6
 262    9:30   81.9    26    2.0   277      4.7   906.6    0.00     739    81.9
 262    9:40   82.9    26    1.6   303      4.8   906.7    0.00     759    82.3
 262    9:50   83.6    25    1.3     6      5.7   906.8    0.00     780    82.7
 262   10:00   83.9    24    1.7   215      4.5   906.8    0.00     794    83.1
 262   10:10   84.1    24    1.6   312      4.5   906.7    0.00     810    83.5
 262   10:20   84.4    24    2.4    33      6.9   906.9    0.00     832    83.9
 262   10:30   85.3    24    1.3    26      3.4   906.8    0.00     844    84.3
 262   10:40   85.9    22    2.9    76      7.9   906.8    0.00     854    84.7
 262   10:50   86.1    22    1.8   173      5.5   906.6    0.00     861    85.0
 262   11:00   86.3    22    3.6    81     11.7   906.5    0.00     877    85.3
 262   11:10   86.5    22    4.2    79      9.3   906.3    0.00     883    85.5
 262   11:20   87.4    21    1.5    19      4.6   906.2    0.00     882    85.7
 262   11:30   88.1    20    4.0   100      9.3   906.0    0.00     886    85.8
 262   11:40   88.9    16    5.1    88     12.1   905.9    0.00     896    85.9
 262   11:50   89.1    14    4.9   102     11.0   905.9    0.00     896    86.0
 262   12:00   89.4    13    4.7   100     12.1   905.8    0.00     895    86.1
 262   12:10   89.2    13    6.3    97     14.5   905.8    0.00     893    86.1
 262   12:20   89.6    12    7.3    89     14.5   905.5    0.00     886    86.3
 262   12:30   89.7    12    5.3   104     13.4   905.5    0.00     875    86.6
 262   12:40   89.2    13    7.1   101     18.0   905.3    0.00     844    86.9
 262   12:50   89.7    14    5.0   108     17.1   905.3    0.00     830    87.2
 262   13:00   89.5    14    6.6   102     16.6   905.1    0.00     837    87.5
 262   13:10   90.1    13    5.2   107     16.7   905.0    0.00     804    87.9
 262   13:20   90.1    14    6.2   106     15.8   904.9    0.00     787    88.2
 262   13:30   90.1    14    5.8   108     14.2   904.8    0.00     787    88.6
 262   13:40   90.1    14    5.7   108     17.5   904.7    0.00     767    88.9

Return to Indian Springs, Nevada graphs page.


Western Regional Climate Center,wrcc@dri.edu